Newfoundland, Pennsylvania
Current Conditions -  °F | °C
As of 12:03 AM on Thursday 23 Oct 2014 (Local Time) from KMPO Reporting Station
Light Rain Light Rain  
Wind Chill:   Ceiling: 1300
Heat Index:   Visibility: 10mi
Dew Point:   Wind: 21mph
Humidity: 86%   Direction: 350°N
Pressure: 29.84"   Gusts: 31mph
Location:  41.31°N, 75.32°W
Report Text: KMPO 230403Z AUTO 35018G27KT 10SM -RA BKN013 BKN020 OVC055 08/06 A2984 RMK AO2 PK WND 35027/0359 T00780056 TSNO PNO $
Loading
Personal Weather Stations






























Interactive Weather Map
Tropical Storm Tracking
New forecast layout! Learn more

10-Day Weather Forecast

Advertisements
Track Severe Weather on mobile